sensor_id;sensor_type;location;lat;lon;timestamp;temperature;humidity
10171;DHT22;5127;50.922;6.988;2022-08-19T00:00:40;23.80;55.10
10171;DHT22;5127;50.922;6.988;2022-08-19T00:03:07;23.80;55.10
10171;DHT22;5127;50.922;6.988;2022-08-19T00:05:34;23.70;55.20
10171;DHT22;5127;50.922;6.988;2022-08-19T00:08:02;23.70;55.40
10171;DHT22;5127;50.922;6.988;2022-08-19T00:10:30;23.70;55.50
10171;DHT22;5127;50.922;6.988;2022-08-19T00:12:59;23.60;55.60
10171;DHT22;5127;50.922;6.988;2022-08-19T00:15:26;23.60;55.70
10171;DHT22;5127;50.922;6.988;2022-08-19T00:17:54;23.60;55.70
10171;DHT22;5127;50.922;6.988;2022-08-19T00:20:21;23.60;55.70
10171;DHT22;5127;50.922;6.988;2022-08-19T00:22:49;23.50;55.70
10171;DHT22;5127;50.922;6.988;2022-08-19T00:25:18;23.50;55.80
10171;DHT22;5127;50.922;6.988;2022-08-19T00:27:45;23.50;55.80
10171;DHT22;5127;50.922;6.988;2022-08-19T00:30:15;23.40;55.90
10171;DHT22;5127;50.922;6.988;2022-08-19T00:32:42;23.40;56.10
10171;DHT22;5127;50.922;6.988;2022-08-19T00:35:09;23.40;56.00
10171;DHT22;5127;50.922;6.988;2022-08-19T00:37:37;23.40;56.10
10171;DHT22;5127;50.922;6.988;2022-08-19T00:40:10;23.30;56.70
10171;DHT22;5127;50.922;6.988;2022-08-19T00:42:38;23.30;56.20
10171;DHT22;5127;50.922;6.988;2022-08-19T00:45:11;23.30;56.40
10171;DHT22;5127;50.922;6.988;2022-08-19T00:47:40;23.30;56.80
10171;DHT22;5127;50.922;6.988;2022-08-19T00:50:08;23.20;56.30
10171;DHT22;5127;50.922;6.988;2022-08-19T00:52:38;23.20;56.40
10171;DHT22;5127;50.922;6.988;2022-08-19T00:55:08;23.30;56.70
10171;DHT22;5127;50.922;6.988;2022-08-19T00:57:39;23.20;56.60
10171;DHT22;5127;50.922;6.988;2022-08-19T01:00:10;23.10;56.40
10171;DHT22;5127;50.922;6.988;2022-08-19T01:02:41;23.10;56.50
10171;DHT22;5127;50.922;6.988;2022-08-19T01:05:11;23.10;56.50
10171;DHT22;5127;50.922;6.988;2022-08-19T01:07:41;23.10;56.60
10171;DHT22;5127;50.922;6.988;2022-08-19T01:10:10;23.00;56.50
10171;DHT22;5127;50.922;6.988;2022-08-19T01:12:39;23.00;56.80
10171;DHT22;5127;50.922;6.988;2022-08-19T01:15:09;23.00;57.20
10171;DHT22;5127;50.922;6.988;2022-08-19T01:17:41;22.90;56.70
10171;DHT22;5127;50.922;6.988;2022-08-19T01:20:11;23.00;57.00
10171;DHT22;5127;50.922;6.988;2022-08-19T01:22:44;22.90;56.80
10171;DHT22;5127;50.922;6.988;2022-08-19T01:25:13;22.80;57.00
10171;DHT22;5127;50.922;6.988;2022-08-19T01:27:43;22.80;56.90
10171;DHT22;5127;50.922;6.988;2022-08-19T01:30:14;22.90;57.00
10171;DHT22;5127;50.922;6.988;2022-08-19T01:32:42;22.90;57.00
10171;DHT22;5127;50.922;6.988;2022-08-19T01:35:10;22.80;56.80
10171;DHT22;5127;50.922;6.988;2022-08-19T01:37:49;22.70;56.80
10171;DHT22;5127;50.922;6.988;2022-08-19T01:40:17;22.80;57.40
10171;DHT22;5127;50.922;6.988;2022-08-19T01:42:46;22.70;56.90
10171;DHT22;5127;50.922;6.988;2022-08-19T01:45:13;22.70;57.00
10171;DHT22;5127;50.922;6.988;2022-08-19T01:47:40;22.60;57.10
10171;DHT22;5127;50.922;6.988;2022-08-19T01:50:10;22.50;57.00
10171;DHT22;5127;50.922;6.988;2022-08-19T01:52:38;22.50;57.30
10171;DHT22;5127;50.922;6.988;2022-08-19T01:55:10;22.50;57.30
10171;DHT22;5127;50.922;6.988;2022-08-19T01:57:39;22.40;57.50
10171;DHT22;5127;50.922;6.988;2022-08-19T02:00:11;22.40;57.40
10171;DHT22;5127;50.922;6.988;2022-08-19T02:02:40;22.40;57.60
10171;DHT22;5127;50.922;6.988;2022-08-19T02:05:07;22.50;57.60
10171;DHT22;5127;50.922;6.988;2022-08-19T02:07:36;22.30;57.50
10171;DHT22;5127;50.922;6.988;2022-08-19T02:10:04;22.30;57.70
10171;DHT22;5127;50.922;6.988;2022-08-19T02:12:34;22.30;57.70
10171;DHT22;5127;50.922;6.988;2022-08-19T02:15:02;22.30;57.80
10171;DHT22;5127;50.922;6.988;2022-08-19T02:17:30;22.20;57.80
10171;DHT22;5127;50.922;6.988;2022-08-19T02:19:57;22.20;57.80
10171;DHT22;5127;50.922;6.988;2022-08-19T02:22:25;22.20;58.00
10171;DHT22;5127;50.922;6.988;2022-08-19T02:24:52;22.30;58.20
10171;DHT22;5127;50.922;6.988;2022-08-19T02:27:20;22.20;58.20
10171;DHT22;5127;50.922;6.988;2022-08-19T02:29:50;22.10;58.10
10171;DHT22;5127;50.922;6.988;2022-08-19T02:32:18;22.10;58.40
10171;DHT22;5127;50.922;6.988;2022-08-19T02:34:46;22.20;58.30
10171;DHT22;5127;50.922;6.988;2022-08-19T02:37:13;22.10;58.30
10171;DHT22;5127;50.922;6.988;2022-08-19T02:39:55;22.10;58.40
10171;DHT22;5127;50.922;6.988;2022-08-19T02:42:22;22.00;58.30
10171;DHT22;5127;50.922;6.988;2022-08-19T02:44:51;22.00;58.30
10171;DHT22;5127;50.922;6.988;2022-08-19T02:47:19;22.00;58.60
10171;DHT22;5127;50.922;6.988;2022-08-19T02:49:46;22.00;58.40
10171;DHT22;5127;50.922;6.988;2022-08-19T02:52:15;22.00;58.50
10171;DHT22;5127;50.922;6.988;2022-08-19T02:54:42;22.10;58.50
10171;DHT22;5127;50.922;6.988;2022-08-19T02:57:10;21.90;58.50
10171;DHT22;5127;50.922;6.988;2022-08-19T02:59:38;22.00;58.50
10171;DHT22;5127;50.922;6.988;2022-08-19T03:02:07;21.90;58.60
10171;DHT22;5127;50.922;6.988;2022-08-19T03:04:34;21.90;58.80
10171;DHT22;5127;50.922;6.988;2022-08-19T03:07:01;21.90;58.80
10171;DHT22;5127;50.922;6.988;2022-08-19T03:09:28;21.90;58.80
10171;DHT22;5127;50.922;6.988;2022-08-19T03:11:56;21.80;58.90
10171;DHT22;5127;50.922;6.988;2022-08-19T03:14:23;21.80;58.90
10171;DHT22;5127;50.922;6.988;2022-08-19T03:16:52;21.90;59.10
10171;DHT22;5127;50.922;6.988;2022-08-19T03:19:20;21.80;59.00
10171;DHT22;5127;50.922;6.988;2022-08-19T03:21:48;21.90;59.00
10171;DHT22;5127;50.922;6.988;2022-08-19T03:24:16;21.80;59.00
10171;DHT22;5127;50.922;6.988;2022-08-19T03:26:46;21.80;58.90
10171;DHT22;5127;50.922;6.988;2022-08-19T03:29:15;21.80;58.90
10171;DHT22;5127;50.922;6.988;2022-08-19T03:31:43;21.80;58.90
10171;DHT22;5127;50.922;6.988;2022-08-19T03:34:14;21.80;59.00
10171;DHT22;5127;50.922;6.988;2022-08-19T03:36:43;21.80;59.10
10171;DHT22;5127;50.922;6.988;2022-08-19T03:39:11;21.70;59.00
10171;DHT22;5127;50.922;6.988;2022-08-19T03:41:40;21.70;59.00
10171;DHT22;5127;50.922;6.988;2022-08-19T03:44:08;21.70;59.20
10171;DHT22;5127;50.922;6.988;2022-08-19T03:46:35;21.70;59.10
10171;DHT22;5127;50.922;6.988;2022-08-19T03:49:03;21.60;58.90
10171;DHT22;5127;50.922;6.988;2022-08-19T03:51:35;21.60;59.20
10171;DHT22;5127;50.922;6.988;2022-08-19T03:54:06;21.60;59.30
10171;DHT22;5127;50.922;6.988;2022-08-19T03:56:34;21.60;59.30
10171;DHT22;5127;50.922;6.988;2022-08-19T03:59:03;21.60;59.30
10171;DHT22;5127;50.922;6.988;2022-08-19T04:01:30;21.60;59.30
10171;DHT22;5127;50.922;6.988;2022-08-19T04:03:58;21.60;59.20
10171;DHT22;5127;50.922;6.988;2022-08-19T04:06:28;21.60;59.30
10171;DHT22;5127;50.922;6.988;2022-08-19T04:08:57;21.50;59.40
10171;DHT22;5127;50.922;6.988;2022-08-19T04:11:28;21.50;59.40
10171;DHT22;5127;50.922;6.988;2022-08-19T04:13:56;21.60;59.60
10171;DHT22;5127;50.922;6.988;2022-08-19T04:16:26;21.50;59.50
10171;DHT22;5127;50.922;6.988;2022-08-19T04:18:55;21.50;59.60
10171;DHT22;5127;50.922;6.988;2022-08-19T04:21:24;21.50;59.60
10171;DHT22;5127;50.922;6.988;2022-08-19T04:23:52;21.50;59.70
10171;DHT22;5127;50.922;6.988;2022-08-19T04:26:22;21.40;59.50
10171;DHT22;5127;50.922;6.988;2022-08-19T04:28:51;21.50;59.90
10171;DHT22;5127;50.922;6.988;2022-08-19T04:31:22;21.40;59.70
10171;DHT22;5127;50.922;6.988;2022-08-19T04:34:17;21.40;59.60
10171;DHT22;5127;50.922;6.988;2022-08-19T04:36:48;21.40;60.20
10171;DHT22;5127;50.922;6.988;2022-08-19T04:39:19;21.40;59.60
10171;DHT22;5127;50.922;6.988;2022-08-19T04:41:46;21.40;60.00
10171;DHT22;5127;50.922;6.988;2022-08-19T04:44:34;21.50;60.00
10171;DHT22;5127;50.922;6.988;2022-08-19T04:47:02;21.30;60.00
10171;DHT22;5127;50.922;6.988;2022-08-19T04:49:31;21.40;59.90
10171;DHT22;5127;50.922;6.988;2022-08-19T04:51:58;21.40;60.00
10171;DHT22;5127;50.922;6.988;2022-08-19T04:54:26;21.40;60.00
10171;DHT22;5127;50.922;6.988;2022-08-19T04:56:53;21.40;60.00
10171;DHT22;5127;50.922;6.988;2022-08-19T04:59:21;21.50;60.10
10171;DHT22;5127;50.922;6.988;2022-08-19T05:01:49;21.40;60.10
10171;DHT22;5127;50.922;6.988;2022-08-19T05:04:19;21.40;60.20
10171;DHT22;5127;50.922;6.988;2022-08-19T05:06:47;21.50;60.60
10171;DHT22;5127;50.922;6.988;2022-08-19T05:09:16;21.50;60.50
10171;DHT22;5127;50.922;6.988;2022-08-19T05:11:43;21.50;60.50
10171;DHT22;5127;50.922;6.988;2022-08-19T05:14:11;21.50;60.60
10171;DHT22;5127;50.922;6.988;2022-08-19T05:16:39;21.50;60.60
10171;DHT22;5127;50.922;6.988;2022-08-19T05:19:08;21.60;60.60
10171;DHT22;5127;50.922;6.988;2022-08-19T05:21:53;21.60;60.80
10171;DHT22;5127;50.922;6.988;2022-08-19T05:24:53;21.70;60.60
10171;DHT22;5127;50.922;6.988;2022-08-19T05:27:21;21.80;60.50
10171;DHT22;5127;50.922;6.988;2022-08-19T05:29:48;21.80;60.50
10171;DHT22;5127;50.922;6.988;2022-08-19T05:32:15;21.80;60.70
10171;DHT22;5127;50.922;6.988;2022-08-19T05:34:44;21.90;60.90
10171;DHT22;5127;50.922;6.988;2022-08-19T05:37:11;22.00;61.10
10171;DHT22;5127;50.922;6.988;2022-08-19T05:39:38;22.00;61.00
10171;DHT22;5127;50.922;6.988;2022-08-19T05:42:09;22.00;61.20
10171;DHT22;5127;50.922;6.988;2022-08-19T05:44:38;22.10;61.40
10171;DHT22;5127;50.922;6.988;2022-08-19T05:47:11;22.20;61.60
10171;DHT22;5127;50.922;6.988;2022-08-19T05:49:38;22.20;61.50
10171;DHT22;5127;50.922;6.988;2022-08-19T05:52:09;22.30;61.50
10171;DHT22;5127;50.922;6.988;2022-08-19T05:54:38;22.30;61.70
10171;DHT22;5127;50.922;6.988;2022-08-19T05:57:06;22.40;61.50
10171;DHT22;5127;50.922;6.988;2022-08-19T05:59:33;22.50;61.60
10171;DHT22;5127;50.922;6.988;2022-08-19T06:02:02;22.50;61.60
10171;DHT22;5127;50.922;6.988;2022-08-19T06:04:30;22.50;61.50
10171;DHT22;5127;50.922;6.988;2022-08-19T06:06:57;22.50;61.50
10171;DHT22;5127;50.922;6.988;2022-08-19T06:09:25;22.60;61.60
10171;DHT22;5127;50.922;6.988;2022-08-19T06:11:54;22.60;61.70
10171;DHT22;5127;50.922;6.988;2022-08-19T06:14:28;22.60;61.60
10171;DHT22;5127;50.922;6.988;2022-08-19T06:16:56;22.70;62.00
10171;DHT22;5127;50.922;6.988;2022-08-19T06:19:28;22.70;61.90
10171;DHT22;5127;50.922;6.988;2022-08-19T06:21:56;22.80;62.00
10171;DHT22;5127;50.922;6.988;2022-08-19T06:24:28;22.80;62.00
10171;DHT22;5127;50.922;6.988;2022-08-19T06:26:56;22.90;62.20
10171;DHT22;5127;50.922;6.988;2022-08-19T06:29:25;23.00;62.10
10171;DHT22;5127;50.922;6.988;2022-08-19T06:31:54;23.10;62.00
10171;DHT22;5127;50.922;6.988;2022-08-19T06:34:22;23.10;62.10
10171;DHT22;5127;50.922;6.988;2022-08-19T06:36:51;23.20;62.00
10171;DHT22;5127;50.922;6.988;2022-08-19T06:39:21;23.30;62.10
10171;DHT22;5127;50.922;6.988;2022-08-19T06:41:54;23.30;62.00
10171;DHT22;5127;50.922;6.988;2022-08-19T06:44:23;23.40;62.00
10171;DHT22;5127;50.922;6.988;2022-08-19T06:46:52;23.50;61.90
10171;DHT22;5127;50.922;6.988;2022-08-19T06:49:19;23.60;61.90
10171;DHT22;5127;50.922;6.988;2022-08-19T06:51:48;23.70;61.90
10171;DHT22;5127;50.922;6.988;2022-08-19T06:54:16;23.80;62.10
10171;DHT22;5127;50.922;6.988;2022-08-19T06:56:44;23.90;62.00
10171;DHT22;5127;50.922;6.988;2022-08-19T06:59:15;24.10;62.50
10171;DHT22;5127;50.922;6.988;2022-08-19T07:01:45;24.30;63.10
10171;DHT22;5127;50.922;6.988;2022-08-19T07:04:14;24.50;63.70
10171;DHT22;5127;50.922;6.988;2022-08-19T07:06:42;24.90;64.20
10171;DHT22;5127;50.922;6.988;2022-08-19T07:09:11;25.20;64.00
10171;DHT22;5127;50.922;6.988;2022-08-19T07:11:43;25.70;64.00
10171;DHT22;5127;50.922;6.988;2022-08-19T07:14:10;26.10;63.90
10171;DHT22;5127;50.922;6.988;2022-08-19T07:16:39;26.50;63.40
10171;DHT22;5127;50.922;6.988;2022-08-19T07:19:07;26.90;62.30
10171;DHT22;5127;50.922;6.988;2022-08-19T07:21:35;27.30;61.60
10171;DHT22;5127;50.922;6.988;2022-08-19T07:24:03;27.60;60.30
10171;DHT22;5127;50.922;6.988;2022-08-19T07:26:33;27.90;59.70
10171;DHT22;5127;50.922;6.988;2022-08-19T07:29:00;28.00;59.00
10171;DHT22;5127;50.922;6.988;2022-08-19T07:31:28;28.20;58.80
10171;DHT22;5127;50.922;6.988;2022-08-19T07:33:56;28.40;58.60
10171;DHT22;5127;50.922;6.988;2022-08-19T07:36:27;28.60;58.30
10171;DHT22;5127;50.922;6.988;2022-08-19T07:39:00;28.80;58.00
10171;DHT22;5127;50.922;6.988;2022-08-19T07:41:28;29.10;57.70
10171;DHT22;5127;50.922;6.988;2022-08-19T07:43:58;29.30;57.10
10171;DHT22;5127;50.922;6.988;2022-08-19T07:46:29;29.40;56.40
10171;DHT22;5127;50.922;6.988;2022-08-19T07:48:59;29.50;55.90
10171;DHT22;5127;50.922;6.988;2022-08-19T07:51:27;29.60;55.20
10171;DHT22;5127;50.922;6.988;2022-08-19T07:53:55;29.60;55.00
10171;DHT22;5127;50.922;6.988;2022-08-19T07:56:22;29.70;54.70
10171;DHT22;5127;50.922;6.988;2022-08-19T07:58:51;29.70;54.10
10171;DHT22;5127;50.922;6.988;2022-08-19T08:01:21;29.60;53.40
10171;DHT22;5127;50.922;6.988;2022-08-19T08:03:50;29.60;53.00
10171;DHT22;5127;50.922;6.988;2022-08-19T08:06:37;29.40;52.80
10171;DHT22;5127;50.922;6.988;2022-08-19T08:09:24;29.30;52.60
10171;DHT22;5127;50.922;6.988;2022-08-19T08:11:57;29.00;52.60
10171;DHT22;5127;50.922;6.988;2022-08-19T08:14:28;28.80;52.80
10171;DHT22;5127;50.922;6.988;2022-08-19T08:16:56;28.70;53.10
10171;DHT22;5127;50.922;6.988;2022-08-19T08:19:24;28.50;53.20
10171;DHT22;5127;50.922;6.988;2022-08-19T08:21:54;28.40;53.50
10171;DHT22;5127;50.922;6.988;2022-08-19T08:24:22;28.40;53.70
10171;DHT22;5127;50.922;6.988;2022-08-19T08:26:49;28.40;54.10
10171;DHT22;5127;50.922;6.988;2022-08-19T08:29:17;28.40;54.20
10171;DHT22;5127;50.922;6.988;2022-08-19T08:31:46;28.50;54.50
10171;DHT22;5127;50.922;6.988;2022-08-19T08:34:14;28.60;54.50
10171;DHT22;5127;50.922;6.988;2022-08-19T08:36:44;28.70;54.50
10171;DHT22;5127;50.922;6.988;2022-08-19T08:39:14;28.80;54.40
10171;DHT22;5127;50.922;6.988;2022-08-19T08:41:48;28.90;54.20
10171;DHT22;5127;50.922;6.988;2022-08-19T08:44:20;29.10;53.90
10171;DHT22;5127;50.922;6.988;2022-08-19T08:46:49;29.20;53.80
10171;DHT22;5127;50.922;6.988;2022-08-19T08:49:27;29.30;53.60
10171;DHT22;5127;50.922;6.988;2022-08-19T08:52:00;29.40;53.30
10171;DHT22;5127;50.922;6.988;2022-08-19T08:54:34;29.50;53.00
10171;DHT22;5127;50.922;6.988;2022-08-19T08:57:04;29.50;52.60
10171;DHT22;5127;50.922;6.988;2022-08-19T08:59:38;29.60;52.60
10171;DHT22;5127;50.922;6.988;2022-08-19T09:02:07;29.50;52.50
10171;DHT22;5127;50.922;6.988;2022-08-19T09:04:35;29.50;52.70
10171;DHT22;5127;50.922;6.988;2022-08-19T09:07:18;29.60;52.90
10171;DHT22;5127;50.922;6.988;2022-08-19T09:09:51;29.60;52.50
10171;DHT22;5127;50.922;6.988;2022-08-19T09:12:24;29.70;52.40
10171;DHT22;5127;50.922;6.988;2022-08-19T09:14:56;29.70;52.40
10171;DHT22;5127;50.922;6.988;2022-08-19T09:17:27;29.80;52.50
10171;DHT22;5127;50.922;6.988;2022-08-19T09:20:00;30.00;52.60
10171;DHT22;5127;50.922;6.988;2022-08-19T09:22:30;30.10;52.80
10171;DHT22;5127;50.922;6.988;2022-08-19T09:24:59;30.30;52.40
10171;DHT22;5127;50.922;6.988;2022-08-19T09:27:27;30.50;52.20
10171;DHT22;5127;50.922;6.988;2022-08-19T09:29:54;30.60;52.20
10171;DHT22;5127;50.922;6.988;2022-08-19T09:32:22;30.80;52.00
10171;DHT22;5127;50.922;6.988;2022-08-19T09:34:51;31.00;51.30
10171;DHT22;5127;50.922;6.988;2022-08-19T09:37:20;31.20;50.70
10171;DHT22;5127;50.922;6.988;2022-08-19T09:39:48;31.30;49.80
10171;DHT22;5127;50.922;6.988;2022-08-19T09:42:17;31.40;49.30
10171;DHT22;5127;50.922;6.988;2022-08-19T09:44:44;31.50;49.00
10171;DHT22;5127;50.922;6.988;2022-08-19T09:47:13;31.50;48.80
10171;DHT22;5127;50.922;6.988;2022-08-19T09:49:41;31.50;48.30
10171;DHT22;5127;50.922;6.988;2022-08-19T09:52:09;31.50;47.80
10171;DHT22;5127;50.922;6.988;2022-08-19T09:54:37;31.50;47.50
10171;DHT22;5127;50.922;6.988;2022-08-19T09:57:05;31.40;47.40
10171;DHT22;5127;50.922;6.988;2022-08-19T09:59:34;31.40;47.40
10171;DHT22;5127;50.922;6.988;2022-08-19T10:02:01;31.30;47.30
10171;DHT22;5127;50.922;6.988;2022-08-19T10:04:28;31.20;47.20
10171;DHT22;5127;50.922;6.988;2022-08-19T10:07:10;31.10;47.20
10171;DHT22;5127;50.922;6.988;2022-08-19T10:09:37;31.10;47.00
10171;DHT22;5127;50.922;6.988;2022-08-19T10:12:07;30.90;46.60
10171;DHT22;5127;50.922;6.988;2022-08-19T10:14:37;30.80;46.50
10171;DHT22;5127;50.922;6.988;2022-08-19T10:17:04;30.70;46.10
10171;DHT22;5127;50.922;6.988;2022-08-19T10:19:32;30.60;46.00
10171;DHT22;5127;50.922;6.988;2022-08-19T10:22:05;30.50;46.30
10171;DHT22;5127;50.922;6.988;2022-08-19T10:24:33;30.40;46.20
10171;DHT22;5127;50.922;6.988;2022-08-19T10:27:01;30.30;46.40
10171;DHT22;5127;50.922;6.988;2022-08-19T10:29:30;30.20;46.40
10171;DHT22;5127;50.922;6.988;2022-08-19T10:32:00;30.20;46.70
10171;DHT22;5127;50.922;6.988;2022-08-19T10:34:28;30.10;46.60
10171;DHT22;5127;50.922;6.988;2022-08-19T10:36:56;30.10;46.70
10171;DHT22;5127;50.922;6.988;2022-08-19T10:39:24;30.00;46.80
10171;DHT22;5127;50.922;6.988;2022-08-19T10:41:51;30.00;46.90
10171;DHT22;5127;50.922;6.988;2022-08-19T10:44:19;29.90;46.90
10171;DHT22;5127;50.922;6.988;2022-08-19T10:46:47;29.90;47.00
10171;DHT22;5127;50.922;6.988;2022-08-19T10:49:16;29.80;47.40
10171;DHT22;5127;50.922;6.988;2022-08-19T10:51:45;29.80;47.00
10171;DHT22;5127;50.922;6.988;2022-08-19T10:54:29;29.70;47.60
10171;DHT22;5127;50.922;6.988;2022-08-19T10:57:10;29.80;47.20
10171;DHT22;5127;50.922;6.988;2022-08-19T10:59:38;29.70;47.30
10171;DHT22;5127;50.922;6.988;2022-08-19T11:02:08;29.80;47.30
10171;DHT22;5127;50.922;6.988;2022-08-19T11:04:38;29.90;47.20
10171;DHT22;5127;50.922;6.988;2022-08-19T11:07:07;29.90;47.20
10171;DHT22;5127;50.922;6.988;2022-08-19T11:09:38;30.00;47.20
10171;DHT22;5127;50.922;6.988;2022-08-19T11:12:06;30.00;46.90
10171;DHT22;5127;50.922;6.988;2022-08-19T11:14:35;30.00;47.00
10171;DHT22;5127;50.922;6.988;2022-08-19T11:17:04;30.00;46.90
10171;DHT22;5127;50.922;6.988;2022-08-19T11:19:33;30.00;46.50
10171;DHT22;5127;50.922;6.988;2022-08-19T11:22:02;30.10;46.70
10171;DHT22;5127;50.922;6.988;2022-08-19T11:24:30;30.10;46.80
10171;DHT22;5127;50.922;6.988;2022-08-19T11:27:03;30.00;46.60
10171;DHT22;5127;50.922;6.988;2022-08-19T11:29:32;30.00;46.40
10171;DHT22;5127;50.922;6.988;2022-08-19T11:32:04;29.90;46.50
10171;DHT22;5127;50.922;6.988;2022-08-19T11:34:31;29.90;46.30
10171;DHT22;5127;50.922;6.988;2022-08-19T11:36:58;29.80;45.90
10171;DHT22;5127;50.922;6.988;2022-08-19T11:39:30;29.80;46.10
10171;DHT22;5127;50.922;6.988;2022-08-19T11:41:58;29.70;45.80
10171;DHT22;5127;50.922;6.988;2022-08-19T11:44:26;29.70;45.80
10171;DHT22;5127;50.922;6.988;2022-08-19T11:46:56;29.70;46.00
10171;DHT22;5127;50.922;6.988;2022-08-19T11:49:23;29.60;45.80
10171;DHT22;5127;50.922;6.988;2022-08-19T11:51:50;29.60;45.80
10171;DHT22;5127;50.922;6.988;2022-08-19T11:54:19;29.70;45.90
10171;DHT22;5127;50.922;6.988;2022-08-19T11:56:48;29.70;45.80
10171;DHT22;5127;50.922;6.988;2022-08-19T11:59:15;29.60;45.60
10171;DHT22;5127;50.922;6.988;2022-08-19T12:01:42;29.70;45.70
10171;DHT22;5127;50.922;6.988;2022-08-19T12:04:10;29.60;45.40
10171;DHT22;5127;50.922;6.988;2022-08-19T12:06:39;29.70;46.20
10171;DHT22;5127;50.922;6.988;2022-08-19T12:09:08;29.70;46.10
10171;DHT22;5127;50.922;6.988;2022-08-19T12:11:36;29.70;45.30
10171;DHT22;5127;50.922;6.988;2022-08-19T12:14:05;29.70;45.40
10171;DHT22;5127;50.922;6.988;2022-08-19T12:16:33;29.70;45.40
10171;DHT22;5127;50.922;6.988;2022-08-19T12:19:03;29.70;45.60
10171;DHT22;5127;50.922;6.988;2022-08-19T12:21:32;29.70;45.40
10171;DHT22;5127;50.922;6.988;2022-08-19T12:24:01;29.60;45.30
10171;DHT22;5127;50.922;6.988;2022-08-19T12:26:29;29.60;45.20
10171;DHT22;5127;50.922;6.988;2022-08-19T12:28:58;29.60;45.30
10171;DHT22;5127;50.922;6.988;2022-08-19T12:31:28;29.60;45.40
10171;DHT22;5127;50.922;6.988;2022-08-19T12:33:56;29.60;45.30
10171;DHT22;5127;50.922;6.988;2022-08-19T12:36:23;29.60;45.30
10171;DHT22;5127;50.922;6.988;2022-08-19T12:38:51;29.60;45.10
10171;DHT22;5127;50.922;6.988;2022-08-19T12:41:19;29.60;44.90
10171;DHT22;5127;50.922;6.988;2022-08-19T12:43:48;29.60;45.00
10171;DHT22;5127;50.922;6.988;2022-08-19T12:46:17;29.60;44.90
10171;DHT22;5127;50.922;6.988;2022-08-19T12:48:46;29.60;44.90
10171;DHT22;5127;50.922;6.988;2022-08-19T12:51:15;29.60;44.50
10171;DHT22;5127;50.922;6.988;2022-08-19T12:53:44;29.60;44.30
10171;DHT22;5127;50.922;6.988;2022-08-19T12:56:12;29.60;44.40
10171;DHT22;5127;50.922;6.988;2022-08-19T12:58:41;29.60;44.70
10171;DHT22;5127;50.922;6.988;2022-08-19T13:01:10;29.70;45.10
10171;DHT22;5127;50.922;6.988;2022-08-19T13:03:38;29.70;45.10
10171;DHT22;5127;50.922;6.988;2022-08-19T13:06:07;29.80;45.00
10171;DHT22;5127;50.922;6.988;2022-08-19T13:08:35;29.90;44.70
10171;DHT22;5127;50.922;6.988;2022-08-19T13:11:13;29.90;44.50
10171;DHT22;5127;50.922;6.988;2022-08-19T13:13:41;30.00;44.10
10171;DHT22;5127;50.922;6.988;2022-08-19T13:16:11;30.00;43.90
10171;DHT22;5127;50.922;6.988;2022-08-19T13:18:40;30.00;43.80
10171;DHT22;5127;50.922;6.988;2022-08-19T13:21:10;30.00;43.80
10171;DHT22;5127;50.922;6.988;2022-08-19T13:23:40;30.00;43.60
10171;DHT22;5127;50.922;6.988;2022-08-19T13:26:09;29.90;43.70
10171;DHT22;5127;50.922;6.988;2022-08-19T13:28:38;29.90;43.50
10171;DHT22;5127;50.922;6.988;2022-08-19T13:31:26;29.80;43.40
10171;DHT22;5127;50.922;6.988;2022-08-19T13:34:11;29.80;43.30
10171;DHT22;5127;50.922;6.988;2022-08-19T13:36:40;29.80;43.30
10171;DHT22;5127;50.922;6.988;2022-08-19T13:39:08;29.70;42.90
10171;DHT22;5127;50.922;6.988;2022-08-19T13:41:36;29.70;43.10
10171;DHT22;5127;50.922;6.988;2022-08-19T13:44:03;29.60;42.80
10171;DHT22;5127;50.922;6.988;2022-08-19T13:46:32;29.60;42.80
10171;DHT22;5127;50.922;6.988;2022-08-19T13:48:59;29.70;42.80
10171;DHT22;5127;50.922;6.988;2022-08-19T13:51:26;29.60;42.70
10171;DHT22;5127;50.922;6.988;2022-08-19T13:53:55;29.60;42.70
10171;DHT22;5127;50.922;6.988;2022-08-19T13:56:22;29.60;42.60
10171;DHT22;5127;50.922;6.988;2022-08-19T13:58:50;29.60;42.50
10171;DHT22;5127;50.922;6.988;2022-08-19T14:01:23;29.60;42.00
10171;DHT22;5127;50.922;6.988;2022-08-19T14:03:52;29.50;41.80
10171;DHT22;5127;50.922;6.988;2022-08-19T14:06:20;29.50;42.70
10171;DHT22;5127;50.922;6.988;2022-08-19T14:08:47;29.60;42.40
10171;DHT22;5127;50.922;6.988;2022-08-19T14:11:15;29.60;42.30
10171;DHT22;5127;50.922;6.988;2022-08-19T14:13:43;29.60;41.90
10171;DHT22;5127;50.922;6.988;2022-08-19T14:16:13;29.60;42.00
10171;DHT22;5127;50.922;6.988;2022-08-19T14:18:41;29.60;42.00
10171;DHT22;5127;50.922;6.988;2022-08-19T14:21:14;29.60;41.90
10171;DHT22;5127;50.922;6.988;2022-08-19T14:23:43;29.60;41.60
10171;DHT22;5127;50.922;6.988;2022-08-19T14:26:12;29.60;41.40
10171;DHT22;5127;50.922;6.988;2022-08-19T14:28:42;29.60;41.50
10171;DHT22;5127;50.922;6.988;2022-08-19T14:31:10;29.60;41.80
10171;DHT22;5127;50.922;6.988;2022-08-19T14:33:38;29.60;41.90
10171;DHT22;5127;50.922;6.988;2022-08-19T14:36:06;29.60;41.90
10171;DHT22;5127;50.922;6.988;2022-08-19T14:38:34;29.60;42.00
10171;DHT22;5127;50.922;6.988;2022-08-19T14:41:09;29.60;42.00
10171;DHT22;5127;50.922;6.988;2022-08-19T14:43:37;29.60;42.00
10171;DHT22;5127;50.922;6.988;2022-08-19T14:46:06;29.50;41.90
10171;DHT22;5127;50.922;6.988;2022-08-19T14:48:34;29.50;41.90
10171;DHT22;5127;50.922;6.988;2022-08-19T14:51:02;29.50;42.00
10171;DHT22;5127;50.922;6.988;2022-08-19T14:53:29;29.50;41.90
10171;DHT22;5127;50.922;6.988;2022-08-19T14:56:00;29.50;41.90
10171;DHT22;5127;50.922;6.988;2022-08-19T14:58:28;29.50;41.80
10171;DHT22;5127;50.922;6.988;2022-08-19T15:00:55;29.50;42.00
10171;DHT22;5127;50.922;6.988;2022-08-19T15:03:24;29.50;42.00
10171;DHT22;5127;50.922;6.988;2022-08-19T15:05:51;29.50;42.00
10171;DHT22;5127;50.922;6.988;2022-08-19T15:08:19;29.40;41.90
10171;DHT22;5127;50.922;6.988;2022-08-19T15:10:46;29.50;41.70
10171;DHT22;5127;50.922;6.988;2022-08-19T15:13:14;29.50;41.80
10171;DHT22;5127;50.922;6.988;2022-08-19T15:15:41;29.60;41.90
10171;DHT22;5127;50.922;6.988;2022-08-19T15:18:09;29.50;41.70
10171;DHT22;5127;50.922;6.988;2022-08-19T15:20:38;29.60;41.50
10171;DHT22;5127;50.922;6.988;2022-08-19T15:23:06;29.60;41.30
10171;DHT22;5127;50.922;6.988;2022-08-19T15:25:33;29.60;41.20
10171;DHT22;5127;50.922;6.988;2022-08-19T15:28:01;29.60;41.10
10171;DHT22;5127;50.922;6.988;2022-08-19T15:30:29;29.70;41.10
10171;DHT22;5127;50.922;6.988;2022-08-19T15:32:57;29.70;40.90
10171;DHT22;5127;50.922;6.988;2022-08-19T15:35:25;29.70;41.00
10171;DHT22;5127;50.922;6.988;2022-08-19T15:37:54;29.70;40.90
10171;DHT22;5127;50.922;6.988;2022-08-19T15:40:22;29.70;40.70
10171;DHT22;5127;50.922;6.988;2022-08-19T15:42:50;29.70;40.70
10171;DHT22;5127;50.922;6.988;2022-08-19T15:45:19;29.60;40.60
10171;DHT22;5127;50.922;6.988;2022-08-19T15:47:47;29.70;40.70
10171;DHT22;5127;50.922;6.988;2022-08-19T15:50:17;29.60;40.70
10171;DHT22;5127;50.922;6.988;2022-08-19T15:52:47;29.60;40.60
10171;DHT22;5127;50.922;6.988;2022-08-19T15:55:17;29.70;40.70
10171;DHT22;5127;50.922;6.988;2022-08-19T15:57:44;29.70;40.70